Time;durP1;ratioP1;P1;durP2;ratioP2;P2;SDS_P1;SDS_P2;PMS_P1;PMS_P2;Temp;Humidity;BMP_temperature;BMP_pressure;BME280_temperature;BME280_humidity;BME280_pressure;Samples;Min_cycle;Max_cycle;Signal;HPM_P1;HPM_P2
2022/03/30 00:01:26;;;;;;;24.63;7.20;;;12.20;25.90;;;;;;5059953;28;46072;-65
2022/03/30 00:03:52;;;;;;;50.27;14.33;;;12.20;25.90;;;;;;5058372;28;46494;-64
2022/03/30 00:06:17;;;;;;;35.23;10.53;;;12.20;26.00;;;;;;5060115;28;46542;-65
2022/03/30 00:08:43;;;;;;;30.53;10.13;;;12.10;26.20;;;;;;5062683;28;47103;-65
2022/03/30 00:11:10;;;;;;;52.47;11.77;;;12.10;26.40;;;;;;5060804;28;45922;-65
2022/03/30 00:13:36;;;;;;;36.20;9.60;;;12.00;26.60;;;;;;5061558;28;46413;-65
2022/03/30 00:16:03;;;;;;;21.53;7.63;;;12.00;26.50;;;;;;5058890;28;46426;-64
2022/03/30 00:18:28;;;;;;;30.70;8.47;;;12.00;26.50;;;;;;5058990;28;48768;-65
2022/03/30 00:20:54;;;;;;;46.27;14.03;;;12.10;26.60;;;;;;5062247;28;46293;-64
2022/03/30 00:23:20;;;;;;;36.67;10.10;;;12.00;26.70;;;;;;5059531;28;46366;-64
2022/03/30 00:25:46;;;;;;;37.87;11.07;;;12.00;26.80;;;;;;5060334;28;46319;-65
2022/03/30 00:28:12;;;;;;;33.97;11.70;;;12.00;27.10;;;;;;5055850;28;46303;-65
2022/03/30 00:30:37;;;;;;;48.80;12.20;;;12.00;27.20;;;;;;5055575;28;46446;-64
2022/03/30 00:33:03;;;;;;;31.23;9.83;;;11.90;27.50;;;;;;5059896;28;46395;-64
2022/03/30 00:35:29;;;;;;;55.57;9.63;;;11.90;27.40;;;;;;5057594;28;46398;-66
2022/03/30 00:37:56;;;;;;;34.00;10.20;;;11.80;27.40;;;;;;5060204;28;46501;-65
2022/03/30 00:40:21;;;;;;;45.13;11.17;;;11.80;27.40;;;;;;5062175;28;46444;-65
2022/03/30 00:42:47;;;;;;;33.03;9.20;;;11.80;27.40;;;;;;5060363;28;46385;-64
2022/03/30 00:45:16;;;;;;;53.20;10.10;;;11.80;27.40;;;;;;5055173;28;45799;-63
2022/03/30 00:47:43;;;;;;;34.77;10.07;;;11.80;27.40;;;;;;5059905;28;46696;-65
2022/03/30 00:50:10;;;;;;;39.83;9.00;;;11.80;27.40;;;;;;5057380;28;46456;-64
2022/03/30 00:52:37;;;;;;;44.93;12.33;;;11.90;27.40;;;;;;5056627;28;46068;-65
2022/03/30 00:55:04;;;;;;;45.70;12.33;;;11.80;27.90;;;;;;5059603;28;46734;-65
2022/03/30 00:57:32;;;;;;;35.40;9.00;;;11.80;27.40;;;;;;5059776;28;46483;-64
2022/03/30 00:59:58;;;;;;;31.37;11.60;;;11.80;27.40;;;;;;5057119;28;46600;-65
2022/03/30 01:02:24;;;;;;;28.80;7.50;;;11.70;27.30;;;;;;5056831;28;46667;-63
2022/03/30 01:04:51;;;;;;;41.57;10.47;;;11.70;27.30;;;;;;5054044;28;46974;-65
2022/03/30 01:07:16;;;;;;;39.87;8.40;;;11.70;27.30;;;;;;5060451;28;46480;-64
2022/03/30 01:09:43;;;;;;;38.47;8.10;;;11.70;27.30;;;;;;5059278;28;45867;-64
2022/03/30 01:12:10;;;;;;;38.33;7.90;;;11.70;27.30;;;;;;5061330;28;46404;-64
2022/03/30 01:14:36;;;;;;;29.43;7.90;;;11.70;27.30;;;;;;5060159;28;46428;-65
2022/03/30 01:17:04;;;;;;;24.60;7.27;;;11.70;27.30;;;;;;5017473;28;1180883;-64
2022/03/30 01:19:31;;;;;;;35.80;7.70;;;11.70;27.30;;;;;;5058923;28;46420;-65
2022/03/30 01:21:58;;;;;;;27.93;8.10;;;11.70;27.30;;;;;;5059077;28;46333;-64
2022/03/30 01:24:24;;;;;;;25.80;9.23;;;11.70;27.30;;;;;;5056019;28;46466;-64
2022/03/30 01:26:49;;;;;;;37.37;8.50;;;11.70;27.30;;;;;;5060931;28;47121;-64
2022/03/30 01:34:44;;;;;;;39.67;9.37;;;11.60;27.40;;;;;;5056544;28;45837;-65
2022/03/30 01:37:12;;;;;;;49.00;11.23;;;11.50;27.80;;;;;;5058463;28;47228;-64
2022/03/30 01:39:39;;;;;;;39.93;12.60;;;11.50;27.90;;;;;;5058355;28;46618;-64
2022/03/30 01:42:05;;;;;;;36.00;12.50;;;11.40;28.30;;;;;;5062073;28;45838;-65
2022/03/30 01:44:31;;;;;;;21.23;7.90;;;11.40;28.60;;;;;;5060034;28;46086;-65
2022/03/30 01:46:56;;;;;;;33.73;7.60;;;11.40;28.60;;;;;;5054943;28;46406;-64
2022/03/30 01:49:22;;;;;;;32.90;11.67;;;11.50;28.50;;;;;;5058640;28;46357;-64
2022/03/30 01:51:49;;;;;;;26.97;7.90;;;11.60;28.40;;;;;;5058379;28;46717;-64
2022/03/30 01:54:20;;;;;;;31.47;9.00;;;11.60;28.30;;;;;;5054177;28;46478;-64
2022/03/30 01:56:49;;;;;;;43.33;9.50;;;11.60;28.30;;;;;;5052895;28;46337;-65
2022/03/30 01:59:15;;;;;;;38.37;8.37;;;11.60;29.20;;;;;;5054560;28;46473;-64
2022/03/30 02:01:41;;;;;;;44.57;8.70;;;11.60;28.20;;;;;;5055914;28;46494;-64
2022/03/30 02:04:08;;;;;;;30.47;8.73;;;11.60;28.20;;;;;;5051694;28;45969;-65
2022/03/30 02:06:34;;;;;;;38.90;8.60;;;11.60;28.00;;;;;;5052660;28;46541;-66
2022/03/30 02:09:00;;;;;;;32.57;7.57;;;11.70;28.00;;;;;;5055453;28;46596;-66
2022/03/30 02:11:26;;;;;;;35.33;7.93;;;11.70;27.90;;;;;;5059540;28;46407;-65
2022/03/30 02:13:52;;;;;;;26.97;7.53;;;11.60;28.00;;;;;;5059859;28;46231;-64
2022/03/30 02:16:18;;;;;;;40.87;9.00;;;11.60;28.10;;;;;;5060212;28;46756;-65
2022/03/30 02:18:44;;;;;;;38.00;10.23;;;11.60;28.20;;;;;;5060931;28;46354;-65
2022/03/30 02:21:10;;;;;;;37.70;9.03;;;11.50;28.30;;;;;;5059146;28;46607;-64
2022/03/30 02:23:36;;;;;;;21.93;8.70;;;11.50;28.40;;;;;;5060500;28;46337;-65
2022/03/30 02:26:02;;;;;;;28.57;9.70;;;11.40;28.60;;;;;;5059837;28;48272;-65
2022/03/30 02:28:28;;;;;;;42.83;11.67;;;11.30;28.50;;;;;;5058163;28;46425;-66
2022/03/30 02:30:53;;;;;;;32.03;8.20;;;11.30;28.60;;;;;;5059499;28;46429;-65
2022/03/30 02:33:19;;;;;;;29.53;7.60;;;11.20;28.60;;;;;;5060200;28;46582;-65
2022/03/30 02:35:45;;;;;;;27.27;7.77;;;11.20;28.60;;;;;;5060142;28;46635;-65
2022/03/30 02:38:10;;;;;;;45.53;8.90;;;11.20;28.50;;;;;;5057410;28;46341;-65
2022/03/30 02:40:36;;;;;;;34.03;10.80;;;11.20;28.30;;;;;;5056957;28;46426;-63
2022/03/30 02:43:02;;;;;;;29.30;8.30;;;11.20;28.30;;;;;;5058443;28;46350;-64
2022/03/30 02:45:27;;;;;;;38.73;7.20;;;11.20;28.30;;;;;;5057476;28;47069;-64
2022/03/30 02:50:37;;;;;;;39.43;8.77;;;11.20;28.30;;;;;;5057187;28;46403;-65
2022/03/30 02:53:03;;;;;;;37.30;8.63;;;11.20;28.00;;;;;;5058918;28;46468;-65
2022/03/30 02:55:28;;;;;;;32.50;8.73;;;11.20;28.00;;;;;;5059129;28;46195;-65
2022/03/30 02:57:54;;;;;;;31.50;9.03;;;11.20;27.90;;;;;;5052948;28;46409;-64
2022/03/30 03:00:19;;;;;;;44.00;9.70;;;11.20;27.80;;;;;;5058935;28;46447;-65
2022/03/30 03:02:45;;;;;;;37.73;9.00;;;11.20;27.80;;;;;;5055836;28;46519;-67
2022/03/30 03:05:10;;;;;;;28.47;7.83;;;11.20;27.80;;;;;;5053590;28;47929;-64
2022/03/30 03:07:36;;;;;;;34.30;8.07;;;11.10;27.90;;;;;;5052871;28;45816;-65
2022/03/30 03:10:02;;;;;;;31.43;8.53;;;11.10;27.90;;;;;;5052222;28;46466;-65
2022/03/30 03:12:28;;;;;;;37.97;8.67;;;11.10;27.90;;;;;;5060704;28;46367;-64
2022/03/30 03:14:54;;;;;;;33.07;8.87;;;11.10;27.80;;;;;;5059962;28;47058;-65
2022/03/30 03:17:20;;;;;;;34.10;8.07;;;11.10;27.80;;;;;;5059425;28;46349;-65
2022/03/30 03:19:46;;;;;;;27.40;8.57;;;11.00;27.90;;;;;;5060601;28;46448;-65
2022/03/30 03:22:11;;;;;;;39.60;8.83;;;10.90;27.90;;;;;;5056430;28;46433;-65
2022/03/30 03:24:37;;;;;;;35.27;8.30;;;10.90;28.00;;;;;;5059033;28;46443;-65
2022/03/30 03:27:03;;;;;;;45.60;8.30;;;10.80;28.10;;;;;;5060505;28;45928;-64
2022/03/30 03:29:29;;;;;;;35.47;8.73;;;10.80;28.20;;;;;;5055620;28;46591;-64
2022/03/30 03:31:55;;;;;;;31.77;9.60;;;10.70;28.40;;;;;;5054947;28;46349;-65
2022/03/30 03:34:21;;;;;;;28.00;8.43;;;10.60;28.50;;;;;;5057567;28;46427;-65
2022/03/30 03:36:46;;;;;;;40.97;8.20;;;10.50;28.60;;;;;;5059452;28;46317;-65
2022/03/30 03:39:12;;;;;;;37.63;7.70;;;10.40;29.40;;;;;;5059880;28;46468;-65
2022/03/30 03:41:38;;;;;;;37.03;8.83;;;10.40;28.90;;;;;;5060336;28;46562;-65
2022/03/30 03:44:03;;;;;;;33.20;8.53;;;10.40;28.90;;;;;;5057983;28;47254;-65
2022/03/30 03:46:29;;;;;;;25.30;8.33;;;10.40;28.80;;;;;;5057040;28;46433;-65
2022/03/30 03:48:55;;;;;;;33.30;7.60;;;10.40;28.80;;;;;;5061070;28;46214;-66
2022/03/30 03:51:21;;;;;;;37.70;8.23;;;10.40;28.80;;;;;;5058239;28;46350;-65
2022/03/30 03:53:47;;;;;;;25.40;8.63;;;10.40;28.90;;;;;;5054857;28;47111;-63
2022/03/30 03:56:12;;;;;;;45.67;8.53;;;10.40;28.90;;;;;;5056425;28;46422;-65
2022/03/30 03:58:38;;;;;;;41.00;8.87;;;10.40;29.00;;;;;;5060236;28;45967;-65
2022/03/30 04:01:04;;;;;;;35.97;7.30;;;10.40;29.10;;;;;;5059985;28;46643;-65
2022/03/30 04:03:29;;;;;;;38.23;8.33;;;10.50;29.10;;;;;;5055619;28;46439;-65
2022/03/30 04:05:55;;;;;;;34.80;8.90;;;10.50;29.00;;;;;;5051063;28;46487;-65
2022/03/30 04:08:20;;;;;;;31.40;9.60;;;10.50;28.90;;;;;;5057038;28;46400;-65
2022/03/30 04:10:47;;;;;;;33.03;9.40;;;10.60;28.90;;;;;;5058548;28;45964;-65
2022/03/30 04:13:13;;;;;;;37.40;8.33;;;10.70;28.80;;;;;;5059271;28;46691;-64
2022/03/30 04:15:39;;;;;;;37.73;9.00;;;10.70;28.60;;;;;;5059765;28;46294;-65
2022/03/30 04:18:07;;;;;;;34.40;6.87;;;10.80;28.60;;;;;;5059618;28;46573;-65
2022/03/30 04:20:33;;;;;;;30.37;7.40;;;10.90;29.40;;;;;;5056346;28;46355;-64
2022/03/30 04:22:59;;;;;;;35.20;7.40;;;10.90;28.40;;;;;;5056575;28;46459;-66
2022/03/30 04:25:25;;;;;;;36.07;7.87;;;11.00;28.40;;;;;;5060994;28;46303;-64
2022/03/30 04:27:52;;;;;;;30.40;8.90;;;11.00;28.40;;;;;;5054299;28;46512;-66
2022/03/30 04:30:20;;;;;;;46.37;8.50;;;11.00;28.40;;;;;;5059077;28;46354;-66
2022/03/30 04:32:46;;;;;;;41.77;7.60;;;11.00;28.50;;;;;;5059528;28;46420;-66
2022/03/30 04:35:14;;;;;;;39.70;8.00;;;10.90;28.60;;;;;;5062069;28;46412;-64
2022/03/30 04:37:40;;;;;;;42.40;9.77;;;10.90;28.70;;;;;;5062934;28;46286;-65
2022/03/30 04:40:07;;;;;;;37.93;8.47;;;10.90;28.70;;;;;;5060060;28;46572;-65
2022/03/30 04:42:33;;;;;;;33.47;9.63;;;10.90;28.70;;;;;;5061624;28;46381;-65
2022/03/30 04:44:58;;;;;;;30.43;7.50;;;10.80;28.80;;;;;;5062197;28;46364;-65
2022/03/30 04:47:24;;;;;;;27.27;6.90;;;10.80;29.00;;;;;;5062262;28;46512;-65
2022/03/30 04:49:49;;;;;;;47.87;9.00;;;10.80;28.90;;;;;;5060648;28;46433;-64
2022/03/30 04:52:15;;;;;;;29.37;7.27;;;10.80;28.90;;;;;;5060747;28;46358;-65
2022/03/30 04:54:41;;;;;;;40.83;8.20;;;10.90;29.00;;;;;;5060875;28;46690;-65
2022/03/30 04:57:06;;;;;;;34.70;9.00;;;10.90;29.10;;;;;;5061481;28;46441;-64
2022/03/30 04:59:32;;;;;;;31.23;7.03;;;10.90;29.50;;;;;;5062034;28;46418;-65
2022/03/30 05:01:59;;;;;;;20.20;7.40;;;10.90;29.70;;;;;;5059923;28;47095;-65
2022/03/30 05:04:24;;;;;;;30.27;8.33;;;10.90;29.90;;;;;;5057960;28;46432;-65
2022/03/30 05:06:50;;;;;;;38.07;8.10;;;10.90;29.90;;;;;;5062245;28;45776;-66
2022/03/30 05:09:15;;;;;;;44.57;7.80;;;11.00;30.00;;;;;;5062619;28;45847;-64
2022/03/30 05:11:41;;;;;;;42.73;11.60;;;11.00;30.00;;;;;;5061651;28;46492;-65
2022/03/30 05:14:07;;;;;;;35.07;10.23;;;11.10;30.60;;;;;;5060719;28;46394;-65
2022/03/30 05:16:33;;;;;;;41.33;11.07;;;11.20;30.90;;;;;;5061150;28;45948;-65
2022/03/30 05:19:02;;;;;;;49.43;13.63;;;11.20;31.00;;;;;;5062284;28;45815;-65
2022/03/30 05:21:29;;;;;;;43.87;12.60;;;11.20;31.10;;;;;;5059869;28;46459;-64
2022/03/30 05:23:54;;;;;;;40.17;11.13;;;11.20;31.20;;;;;;5061783;28;46358;-66
2022/03/30 05:26:20;;;;;;;31.00;9.20;;;11.30;32.00;;;;;;5062168;28;46517;-65
2022/03/30 05:28:46;;;;;;;42.63;10.23;;;11.30;32.00;;;;;;5059170;28;46366;-65
2022/03/30 05:31:12;;;;;;;36.40;11.17;;;11.30;32.30;;;;;;5054362;28;46758;-65
2022/03/30 05:33:37;;;;;;;41.53;8.77;;;11.30;33.30;;;;;;5055521;28;46353;-65
2022/03/30 05:36:03;;;;;;;37.63;10.90;;;11.30;33.40;;;;;;5055841;28;46468;-65
2022/03/30 05:38:29;;;;;;;34.17;10.93;;;11.20;34.10;;;;;;5054144;28;46387;-65
2022/03/30 05:40:55;;;;;;;43.73;12.60;;;11.20;35.10;;;;;;5061090;28;46730;-66
2022/03/30 05:43:21;;;;;;;36.77;10.30;;;11.20;36.10;;;;;;5053903;28;46425;-65
2022/03/30 05:45:47;;;;;;;45.73;11.30;;;11.10;36.60;;;;;;5058624;28;46364;-65
2022/03/30 05:48:13;;;;;;;62.63;10.47;;;11.10;37.10;;;;;;5061862;28;46414;-65
2022/03/30 05:50:39;;;;;;;34.77;8.40;;;11.10;37.60;;;;;;5060031;28;47161;-65
2022/03/30 05:53:06;;;;;;;52.80;12.57;;;11.10;37.30;;;;;;5049560;28;46483;-65
2022/03/30 05:55:32;;;;;;;31.17;9.53;;;11.10;37.50;;;;;;5052469;28;45879;-65
2022/03/30 05:57:58;;;;;;;36.80;7.33;;;11.20;37.40;;;;;;5061833;28;46349;-65
2022/03/30 06:00:23;;;;;;;40.90;9.50;;;11.10;37.70;;;;;;5060177;28;46428;-66
2022/03/30 06:02:49;;;;;;;38.13;10.90;;;11.10;38.30;;;;;;5058819;28;45842;-65
2022/03/30 06:05:14;;;;;;;41.20;11.00;;;11.10;39.00;;;;;;5051154;28;46284;-65
2022/03/30 06:07:40;;;;;;;46.93;12.07;;;11.10;39.10;;;;;;5061288;28;46447;-65
2022/03/30 06:10:06;;;;;;;43.70;9.90;;;11.10;39.40;;;;;;5061757;28;46373;-65
2022/03/30 06:12:32;;;;;;;46.43;9.63;;;11.10;39.40;;;;;;5060684;28;46369;-65
2022/03/30 06:14:58;;;;;;;36.53;8.30;;;11.20;39.60;;;;;;5059189;28;46370;-65
2022/03/30 06:17:23;;;;;;;43.93;14.23;;;11.20;39.50;;;;;;5054748;28;46893;-65
2022/03/30 06:19:51;;;;;;;55.30;11.70;;;11.20;39.50;;;;;;5059630;28;46386;-66
2022/03/30 06:22:17;;;;;;;43.73;9.57;;;11.30;39.40;;;;;;5056598;28;46489;-65
2022/03/30 06:24:43;;;;;;;45.70;10.10;;;11.30;40.50;;;;;;5057420;28;46404;-65
2022/03/30 06:27:10;;;;;;;44.57;9.60;;;11.30;39.40;;;;;;5059874;28;46489;-65
2022/03/30 06:29:37;;;;;;;43.77;12.13;;;11.40;39.30;;;;;;5058868;28;47244;-66
2022/03/30 06:32:04;;;;;;;39.30;9.90;;;11.40;39.20;;;;;;5052358;28;46706;-66
2022/03/30 06:34:30;;;;;;;40.17;10.17;;;11.50;39.20;;;;;;5057158;28;46303;-65
2022/03/30 06:36:56;;;;;;;34.00;8.17;;;11.50;39.10;;;;;;5057584;28;46432;-65
2022/03/30 06:39:22;;;;;;;31.53;8.37;;;11.50;39.00;;;;;;5054471;28;46985;-65
2022/03/30 06:41:48;;;;;;;40.60;8.70;;;11.60;39.00;;;;;;5059292;28;46429;-65
2022/03/30 06:44:15;;;;;;;35.70;9.50;;;11.60;39.10;;;;;;5057980;28;46672;-65
2022/03/30 06:46:41;;;;;;;31.77;8.10;;;11.60;38.90;;;;;;5059941;28;46432;-67
2022/03/30 06:49:07;;;;;;;28.03;7.00;;;11.70;38.50;;;;;;5059790;28;46416;-66
2022/03/30 06:51:33;;;;;;;30.23;7.80;;;11.70;38.40;;;;;;5048639;28;46444;-65
2022/03/30 06:53:59;;;;;;;46.27;7.20;;;11.80;38.20;;;;;;5054602;28;46435;-65
2022/03/30 06:56:25;;;;;;;33.60;6.93;;;11.90;37.80;;;;;;5059879;28;46628;-65
2022/03/30 06:58:52;;;;;;;37.50;7.10;;;11.90;37.50;;;;;;5058502;28;47078;-65
2022/03/30 07:01:18;;;;;;;27.20;9.00;;;12.10;37.20;;;;;;5056635;28;46421;-66
2022/03/30 07:03:43;;;;;;;32.17;7.07;;;12.10;36.70;;;;;;5060806;28;46465;-65
2022/03/30 07:06:09;;;;;;;45.07;10.10;;;12.20;37.20;;;;;;5059506;28;46194;-65
2022/03/30 07:11:18;;;;;;;46.37;7.17;;;12.20;36.70;;;;;;5058614;28;46536;-65
2022/03/30 07:13:44;;;;;;;51.53;11.47;;;12.30;36.60;;;;;;5057218;28;46399;-64
2022/03/30 07:16:10;;;;;;;41.60;9.07;;;12.30;36.40;;;;;;5056328;28;46481;-65
2022/03/30 07:18:37;;;;;;;41.70;8.53;;;12.40;36.50;;;;;;5056572;28;46370;-66
2022/03/30 07:21:03;;;;;;;37.37;7.17;;;12.40;36.50;;;;;;5055197;28;46413;-66
2022/03/30 07:23:28;;;;;;;36.50;7.87;;;12.40;37.00;;;;;;5057693;28;46309;-66
2022/03/30 07:25:54;;;;;;;43.23;11.00;;;12.40;36.60;;;;;;5056013;28;46505;-67
2022/03/30 07:28:20;;;;;;;31.57;8.33;;;12.50;36.40;;;;;;5058083;28;47019;-66
2022/03/30 07:30:48;;;;;;;45.90;8.23;;;12.50;36.70;;;;;;5056424;28;46417;-67
2022/03/30 07:33:14;;;;;;;53.03;11.53;;;12.50;36.60;;;;;;5058416;28;46378;-65
2022/03/30 07:35:46;;;;;;;40.57;9.67;;;12.50;37.70;;;;;;5056758;28;46340;-66
2022/03/30 07:38:15;;;;;;;29.97;6.90;;;12.50;36.70;;;;;;5058448;28;47007;-67
2022/03/30 07:40:42;;;;;;;35.80;7.60;;;12.50;36.70;;;;;;5059582;28;46424;-66
2022/03/30 07:43:09;;;;;;;42.10;8.27;;;12.40;36.60;;;;;;5054282;28;46461;-64
2022/03/30 07:45:35;;;;;;;32.23;9.70;;;12.40;37.30;;;;;;5058484;28;46517;-67
2022/03/30 07:48:01;;;;;;;50.40;8.40;;;12.30;37.50;;;;;;5056208;28;46279;-66
2022/03/30 07:50:27;;;;;;;35.53;7.80;;;12.40;37.20;;;;;;5057109;28;46368;-65
2022/03/30 07:52:52;;;;;;;26.63;7.60;;;12.40;36.90;;;;;;5054011;28;45848;-66
2022/03/30 07:55:18;;;;;;;29.80;7.70;;;12.60;36.60;;;;;;5057698;28;46426;-65
2022/03/30 07:57:44;;;;;;;39.43;6.70;;;12.70;37.10;;;;;;5059067;28;46644;-65
2022/03/30 08:00:15;;;;;;;40.47;7.50;;;12.60;37.20;;;;;;5055300;28;46403;-65
2022/03/30 08:02:42;;;;;;;38.63;8.20;;;12.80;36.40;;;;;;5059752;28;46427;-63
2022/03/30 08:05:12;;;;;;;41.40;9.03;;;13.00;36.10;;;;;;5057960;28;46670;-66
2022/03/30 08:07:43;;;;;;;22.23;7.13;;;13.10;35.70;;;;;;5059413;28;46550;-66
2022/03/30 08:10:09;;;;;;;41.50;8.90;;;13.20;35.60;;;;;;5055228;28;46386;-68
2022/03/30 08:12:36;;;;;;;49.50;8.47;;;13.30;35.30;;;;;;5053864;28;45870;-65
2022/03/30 08:15:03;;;;;;;41.07;8.27;;;13.40;35.10;;;;;;5058500;28;46433;-64
2022/03/30 08:17:29;;;;;;;28.50;7.53;;;13.50;35.00;;;;;;5051482;28;46396;-64
2022/03/30 08:19:57;;;;;;;29.73;8.00;;;13.60;34.80;;;;;;5059335;28;46378;-65
2022/03/30 08:22:26;;;;;;;38.67;7.77;;;13.80;34.70;;;;;;5063375;28;46338;-68
2022/03/30 08:24:57;;;;;;;41.17;8.80;;;13.90;34.50;;;;;;5060938;28;46410;-65
2022/03/30 08:27:24;;;;;;;33.23;6.90;;;14.00;34.50;;;;;;5057072;28;47093;-65
2022/03/30 08:29:52;;;;;;;46.37;10.93;;;14.10;34.30;;;;;;5062607;28;46452;-67
2022/03/30 08:32:21;;;;;;;39.40;9.27;;;14.20;34.10;;;;;;5054519;28;46504;-65
2022/03/30 08:34:48;;;;;;;33.23;8.23;;;14.40;33.80;;;;;;5048581;28;46421;-64
2022/03/30 08:37:14;;;;;;;32.37;7.43;;;14.50;33.60;;;;;;5059608;28;48239;-66
2022/03/30 08:39:40;;;;;;;42.00;8.80;;;14.60;33.50;;;;;;5061553;28;46407;-66
2022/03/30 08:42:07;;;;;;;46.10;9.30;;;14.70;33.30;;;;;;5062226;28;46477;-64
2022/03/30 08:44:34;;;;;;;29.93;9.27;;;14.70;33.20;;;;;;5061432;28;46367;-66
2022/03/30 08:47:00;;;;;;;36.87;8.20;;;14.80;33.20;;;;;;5055265;28;48176;-67
2022/03/30 08:49:27;;;;;;;40.37;7.07;;;14.80;33.20;;;;;;5061704;28;46471;-67
2022/03/30 08:51:54;;;;;;;43.93;8.80;;;14.80;33.00;;;;;;5062803;28;46407;-67
2022/03/30 08:54:21;;;;;;;48.10;8.97;;;14.90;32.90;;;;;;5060051;28;46622;-67
2022/03/30 08:56:47;;;;;;;36.97;9.07;;;14.90;32.90;;;;;;5058125;28;46533;-65
2022/03/30 08:59:19;;;;;;;37.27;8.10;;;14.90;32.90;;;;;;5059370;28;46656;-66
2022/03/30 09:01:45;;;;;;;34.70;7.87;;;15.00;32.70;;;;;;5060226;28;45934;-65
2022/03/30 09:04:13;;;;;;;50.83;8.70;;;15.10;32.50;;;;;;5060872;28;46460;-67
2022/03/30 09:06:44;;;;;;;43.80;9.40;;;15.20;32.30;;;;;;5060111;28;46690;-67
2022/03/30 09:09:11;;;;;;;40.53;9.30;;;15.00;32.50;;;;;;5058710;28;46452;-66
2022/03/30 09:11:55;;;;;;;46.17;9.97;;;14.80;33.20;;;;;;5060257;28;45849;-67
2022/03/30 09:14:24;;;;;;;41.80;8.73;;;14.50;33.50;;;;;;5058404;28;46353;-67
2022/03/30 09:16:55;;;;;;;37.23;11.17;;;14.50;33.60;;;;;;5058726;28;46567;-68
2022/03/30 09:19:21;;;;;;;44.70;10.40;;;14.30;34.20;;;;;;5061167;28;45838;-68
2022/03/30 09:21:51;;;;;;;49.87;8.93;;;13.70;36.30;;;;;;5061807;28;46451;-66
2022/03/30 09:24:20;;;;;;;30.27;7.80;;;13.70;36.10;;;;;;5060122;28;46492;-68
2022/03/30 09:26:47;;;;;;;48.37;11.30;;;13.70;36.50;;;;;;5059417;28;46676;-66
2022/03/30 09:29:13;;;;;;;47.37;10.53;;;13.50;37.20;;;;;;5061446;28;46319;-66
2022/03/30 09:31:41;;;;;;;52.27;13.30;;;13.30;37.80;;;;;;5061731;28;46371;-67
2022/03/30 09:34:09;;;;;;;38.03;10.33;;;13.10;39.10;;;;;;5060314;28;46586;-66
2022/03/30 09:36:38;;;;;;;37.77;8.43;;;13.10;40.20;;;;;;5057846;28;47273;-66
2022/03/30 09:39:06;;;;;;;39.83;8.43;;;13.10;39.80;;;;;;5057651;28;46255;-66
2022/03/30 09:41:48;;;;;;;48.17;8.17;;;13.20;39.60;;;;;;5061728;28;46313;-67
2022/03/30 09:44:14;;;;;;;27.20;8.00;;;13.40;38.80;;;;;;5060436;28;46319;-65
2022/03/30 09:46:53;;;;;;;35.03;7.17;;;13.50;38.20;;;;;;5059455;28;46551;-65
2022/03/30 09:49:35;;;;;;;42.43;7.80;;;13.50;37.80;;;;;;5054053;28;46390;-66
2022/03/30 09:52:09;;;;;;;49.10;9.23;;;13.60;37.30;;;;;;5061404;28;45751;-67
2022/03/30 09:54:49;;;;;;;41.07;9.93;;;13.70;37.70;;;;;;5058992;28;46282;-66
2022/03/30 09:57:18;;;;;;;35.20;7.27;;;13.40;39.10;;;;;;5059334;28;47084;-66
2022/03/30 10:00:03;;;;;;;29.70;9.60;;;13.30;39.10;;;;;;5060551;28;46747;-66
2022/03/30 10:02:52;;;;;;;29.83;8.10;;;13.30;39.10;;;;;;5059370;28;46666;-67
2022/03/30 10:05:22;;;;;;;29.53;7.70;;;13.60;38.20;;;;;;5043932;28;46480;-67
2022/03/30 10:07:49;;;;;;;35.47;6.80;;;13.90;37.30;;;;;;5057545;28;47317;-66
2022/03/30 10:10:17;;;;;;;25.07;5.90;;;14.00;36.70;;;;;;5058592;28;46361;-67
2022/03/30 10:12:43;;;;;;;41.57;8.40;;;14.10;36.30;;;;;;5057990;28;46803;-67
2022/03/30 10:15:10;;;;;;;34.53;6.83;;;14.10;36.50;;;;;;5060480;28;45880;-66
2022/03/30 10:17:37;;;;;;;34.77;8.30;;;14.10;36.40;;;;;;5060009;28;46780;-67
2022/03/30 10:20:04;;;;;;;36.23;13.57;;;14.00;36.50;;;;;;5060066;28;46496;-67
2022/03/30 10:22:49;;;;;;;22.93;7.10;;;14.10;36.40;;;;;;5059241;28;46359;-66
2022/03/30 10:25:37;;;;;;;43.40;8.20;;;14.20;36.30;;;;;;5056621;28;46404;-66
2022/03/30 10:28:35;;;;;;;29.17;8.27;;;14.40;36.00;;;;;;5055026;28;46769;-66
2022/03/30 10:31:01;;;;;;;32.33;9.07;;;14.30;36.10;;;;;;5046714;28;46339;-68
2022/03/30 10:33:33;;;;;;;37.37;7.87;;;14.20;35.90;;;;;;5050504;28;46488;-70
2022/03/30 10:36:19;;;;;;;31.97;7.60;;;14.10;36.30;;;;;;5056479;28;46809;-66
2022/03/30 10:39:16;;;;;;;39.87;9.83;;;13.90;36.80;;;;;;5057202;28;46907;-64
2022/03/30 10:41:53;;;;;;;28.90;7.50;;;13.60;37.60;;;;;;5058822;28;46334;-67
2022/03/30 10:44:42;;;;;;;31.40;7.33;;;13.60;38.00;;;;;;5054755;28;46612;-66
2022/03/30 10:47:12;;;;;;;28.67;9.30;;;13.60;38.60;;;;;;5052537;28;46701;-65
2022/03/30 10:49:43;;;;;;;33.63;8.50;;;13.80;37.90;;;;;;5060048;28;46644;-65
2022/03/30 10:52:41;;;;;;;25.03;7.50;;;13.90;37.70;;;;;;5059158;28;46364;-68
2022/03/30 10:55:12;;;;;;;22.73;7.97;;;14.20;37.70;;;;;;5057206;28;46451;-67
2022/03/30 10:57:43;;;;;;;29.40;8.73;;;14.20;37.60;;;;;;5054298;28;46453;-65
2022/03/30 11:00:17;;;;;;;27.97;8.60;;;14.10;37.70;;;;;;5060654;28;47366;-68
2022/03/30 11:02:43;;;;;;;35.63;10.07;;;14.10;38.10;;;;;;5063046;28;45888;-65
2022/03/30 11:05:13;;;;;;;31.70;8.93;;;13.90;38.80;;;;;;5060982;28;45929;-64
2022/03/30 11:07:40;;;;;;;31.57;9.23;;;13.70;39.00;;;;;;5053520;28;46575;-67
2022/03/30 11:10:17;;;;;;;29.33;9.70;;;13.60;39.50;;;;;;5061124;28;46417;-66
2022/03/30 11:13:11;;;;;;;36.43;11.07;;;13.50;40.30;;;;;;5061677;28;46351;-66
2022/03/30 11:16:07;;;;;;;42.53;9.97;;;13.70;40.70;;;;;;5055801;28;45845;-65
2022/03/30 11:18:33;;;;;;;32.90;9.60;;;13.80;41.80;;;;;;5059276;28;46353;-66
2022/03/30 11:21:23;;;;;;;27.17;9.17;;;13.70;42.50;;;;;;5055962;28;47192;-68
2022/03/30 11:24:07;;;;;;;33.33;9.10;;;13.10;45.80;;;;;;5054534;28;46422;-66
2022/03/30 11:26:50;;;;;;;27.13;8.93;;;12.70;48.40;;;;;;5059899;28;46366;-66
2022/03/30 11:29:41;;;;;;;24.90;8.67;;;12.40;50.40;;;;;;5059922;28;46679;-67
2022/03/30 11:32:19;;;;;;;30.93;8.77;;;12.40;49.90;;;;;;5059304;28;46664;-66
2022/03/30 11:34:55;;;;;;;31.50;9.70;;;12.40;49.60;;;;;;5063156;28;46373;-67
2022/03/30 11:37:29;;;;;;;32.43;8.20;;;12.50;48.20;;;;;;5057673;28;46666;-70
2022/03/30 11:40:03;;;;;;;30.70;8.17;;;12.70;47.30;;;;;;5062160;28;46311;-66
2022/03/30 11:42:28;;;;;;;21.93;8.80;;;13.10;46.60;;;;;;5058288;28;46354;-67
2022/03/30 11:47:43;;;;;;;29.80;9.57;;;13.90;44.50;;;;;;5061502;28;46512;-68
2022/03/30 11:50:10;;;;;;;31.10;10.10;;;14.10;43.90;;;;;;5062515;28;46469;-65
2022/03/30 11:52:36;;;;;;;43.73;10.00;;;14.30;43.50;;;;;;5061362;28;46434;-67
2022/03/30 11:55:01;;;;;;;30.20;9.37;;;14.50;43.20;;;;;;5062090;28;46422;-66
2022/03/30 11:57:27;;;;;;;38.03;11.00;;;14.50;43.20;;;;;;5062754;28;46430;-65
2022/03/30 12:00:01;;;;;;;30.13;11.77;;;14.50;43.20;;;;;;5059942;28;46617;-65
2022/03/30 12:02:30;;;;;;;29.23;11.80;;;14.30;44.30;;;;;;5060091;28;47247;-65
2022/03/30 12:04:56;;;;;;;29.97;10.20;;;14.10;44.40;;;;;;5061364;28;46342;-67
2022/03/30 12:07:23;;;;;;;26.73;9.63;;;13.80;44.70;;;;;;5059171;28;46289;-67
2022/03/30 12:09:53;;;;;;;33.10;10.30;;;13.40;47.80;;;;;;5067149;28;45907;-65
2022/03/30 12:12:31;;;;;;;27.20;9.77;;;13.10;50.00;;;;;;5062375;28;47067;-66
2022/03/30 12:15:00;;;;;;;25.80;9.50;;;13.00;50.70;;;;;;5061520;28;46370;-65
2022/03/30 12:17:27;;;;;;;24.57;9.20;;;13.20;49.40;;;;;;5061947;28;46356;-67
2022/03/30 12:19:53;;;;;;;22.07;10.73;;;13.40;50.00;;;;;;5060486;28;45927;-67
2022/03/30 12:22:19;;;;;;;30.63;9.80;;;13.50;49.00;;;;;;5063401;28;46724;-67
2022/03/30 12:24:45;;;;;;;20.57;9.10;;;13.70;47.80;;;;;;5061513;28;46354;-65
2022/03/30 12:27:11;;;;;;;24.70;10.33;;;14.10;46.80;;;;;;5060966;28;46412;-67
2022/03/30 12:29:38;;;;;;;19.90;9.30;;;14.20;46.10;;;;;;5061639;28;46211;-65
2022/03/30 12:32:05;;;;;;;25.50;10.10;;;14.10;46.90;;;;;;5065154;28;47094;-67
2022/03/30 12:34:33;;;;;;;23.97;11.00;;;14.00;46.80;;;;;;5056776;28;46365;-64
2022/03/30 12:37:03;;;;;;;24.07;9.80;;;13.70;47.60;;;;;;5057123;28;46512;-63
2022/03/30 12:39:33;;;;;;;22.73;10.37;;;13.80;46.80;;;;;;5057407;28;46475;-64
2022/03/30 12:41:58;;;;;;;25.00;11.60;;;14.10;45.90;;;;;;5058311;28;46323;-67
2022/03/30 12:44:46;;;;;;;29.13;10.20;;;14.10;46.60;;;;;;5060350;28;46453;-65
2022/03/30 12:47:32;;;;;;;24.27;9.53;;;14.10;46.50;;;;;;5059223;28;46326;-65
2022/03/30 12:50:03;;;;;;;35.20;11.87;;;14.20;46.60;;;;;;5061944;28;46543;-64
2022/03/30 12:52:54;;;;;;;26.30;11.23;;;13.80;47.70;;;;;;5061349;28;46390;-64